Time;durP1;ratioP1;P1;durP2;ratioP2;P2;SDS_P1;SDS_P2;PMS_P1;PMS_P2;Temp;Humidity;BMP_temperature;BMP_pressure;BME280_temperature;BME280_humidity;BME280_pressure;Samples;Min_cycle;Max_cycle;Signal;HPM_P1;HPM_P2
2023/03/21 00:00:56;;;;;;;12.95;5.50;;;11.00;96.60;;;;;;5073624;28;20025;-72
2023/03/21 00:03:22;;;;;;;11.50;5.07;;;11.00;96.80;;;;;;5074294;28;20032;-72
2023/03/21 00:05:52;;;;;;;11.02;5.57;;;10.90;96.70;;;;;;5074275;28;20041;-72
2023/03/21 00:08:19;;;;;;;10.73;5.88;;;11.00;96.50;;;;;;5074185;28;20029;-72
2023/03/21 00:10:45;;;;;;;10.82;5.38;;;11.00;96.60;;;;;;5073293;28;20040;-71
2023/03/21 00:13:12;;;;;;;12.52;6.50;;;10.90;96.60;;;;;;5056638;28;20033;-72
2023/03/21 00:15:48;;;;;;;11.07;5.68;;;11.00;96.70;;;;;;5074038;28;20021;-72
2023/03/21 00:18:15;;;;;;;15.85;6.60;;;11.00;96.60;;;;;;5074177;28;20029;-72
2023/03/21 00:20:46;;;;;;;15.95;6.38;;;11.00;96.60;;;;;;5072935;28;20052;-72
2023/03/21 00:23:11;;;;;;;13.10;6.13;;;11.00;96.80;;;;;;5074123;28;20109;-72
2023/03/21 00:25:37;;;;;;;11.07;6.13;;;10.90;97.00;;;;;;5073869;28;20025;-72
2023/03/21 00:28:03;;;;;;;13.35;6.55;;;10.90;97.00;;;;;;5073535;28;20045;-72
2023/03/21 00:30:29;;;;;;;12.63;6.28;;;10.90;97.10;;;;;;5073790;28;20063;-73
2023/03/21 00:32:54;;;;;;;12.93;5.63;;;10.90;97.30;;;;;;5072748;28;20052;-72
2023/03/21 00:35:20;;;;;;;11.25;5.70;;;10.80;97.30;;;;;;5073682;28;20039;-72
2023/03/21 00:37:45;;;;;;;11.57;5.72;;;10.90;97.30;;;;;;5073583;28;20054;-72
2023/03/21 00:40:12;;;;;;;13.65;6.00;;;10.90;97.20;;;;;;5073593;28;20025;-72
2023/03/21 00:42:38;;;;;;;14.80;6.07;;;10.90;97.20;;;;;;5073574;28;20014;-72
2023/03/21 00:45:06;;;;;;;13.45;6.32;;;10.90;97.40;;;;;;5073550;28;20035;-72
2023/03/21 00:47:32;;;;;;;14.00;5.93;;;10.90;97.20;;;;;;5072663;28;20021;-72
2023/03/21 00:49:57;;;;;;;14.30;6.13;;;10.90;97.40;;;;;;5073443;28;20405;-71
2023/03/21 00:52:23;;;;;;;13.07;6.10;;;10.80;97.60;;;;;;5073405;28;20052;-71
2023/03/21 00:54:48;;;;;;;12.10;5.72;;;10.80;97.90;;;;;;5072381;28;20029;-71
2023/03/21 00:57:14;;;;;;;11.40;5.53;;;10.80;98.00;;;;;;5072288;28;20033;-71
2023/03/21 00:59:40;;;;;;;18.00;6.57;;;10.70;98.30;;;;;;5073320;28;20029;-72
2023/03/21 01:02:06;;;;;;;15.00;6.38;;;10.70;98.40;;;;;;5072400;28;20097;-71
2023/03/21 01:04:33;;;;;;;15.98;7.07;;;10.60;98.70;;;;;;5073269;28;20026;-72
2023/03/21 01:06:59;;;;;;;16.27;7.93;;;10.60;98.90;;;;;;5073205;28;20040;-72
2023/03/21 01:09:25;;;;;;;17.13;6.60;;;10.60;99.10;;;;;;5055534;28;20025;-71
2023/03/21 01:11:51;;;;;;;17.08;7.18;;;10.60;99.10;;;;;;5073035;28;20021;-72
2023/03/21 01:14:18;;;;;;;14.25;7.18;;;10.60;99.40;;;;;;5073174;28;20025;-71
2023/03/21 01:16:44;;;;;;;14.60;7.20;;;10.60;99.60;;;;;;5072119;28;20515;-71
2023/03/21 01:19:13;;;;;;;17.52;7.03;;;10.50;99.80;;;;;;5073082;28;20025;-72
2023/03/21 01:21:38;;;;;;;16.27;8.02;;;10.50;99.90;;;;;;5073066;28;20016;-71
2023/03/21 01:24:05;;;;;;;14.60;7.63;;;10.40;99.90;;;;;;5073175;28;20049;-72
2023/03/21 01:26:31;;;;;;;15.40;6.75;;;10.50;99.90;;;;;;5071940;28;20040;-72
2023/03/21 01:28:57;;;;;;;15.73;7.10;;;10.40;99.90;;;;;;5072871;28;20156;-72
2023/03/21 01:31:22;;;;;;;14.98;8.00;;;10.40;99.90;;;;;;5072983;28;20029;-71
2023/03/21 01:33:48;;;;;;;19.33;8.48;;;10.40;99.90;;;;;;5073071;28;20029;-71
2023/03/21 01:36:23;;;;;;;20.13;8.27;;;10.40;99.90;;;;;;5072895;28;20025;-71
2023/03/21 01:38:49;;;;;;;13.82;6.65;;;10.40;99.90;;;;;;5073015;28;20023;-71
2023/03/21 01:41:31;;;;;;;18.80;7.13;;;10.50;99.90;;;;;;5072925;28;20033;-71
2023/03/21 01:43:58;;;;;;;13.98;7.20;;;10.50;99.90;;;;;;5072951;28;20521;-71
2023/03/21 01:46:36;;;;;;;15.13;7.47;;;10.50;99.80;;;;;;5072884;28;20041;-71
2023/03/21 01:49:25;;;;;;;15.10;7.20;;;10.50;99.60;;;;;;5072871;28;20055;-71
2023/03/21 01:51:56;;;;;;;12.95;6.95;;;10.60;99.40;;;;;;5072810;28;20025;-72
2023/03/21 01:54:31;;;;;;;13.97;6.53;;;10.60;99.30;;;;;;5072859;28;20021;-72
2023/03/21 01:56:59;;;;;;;18.48;7.43;;;10.60;99.30;;;;;;5072751;28;20286;-72
2023/03/21 01:59:48;;;;;;;15.23;6.75;;;10.60;99.10;;;;;;5072751;28;20024;-72
2023/03/21 02:02:22;;;;;;;15.25;6.28;;;10.70;98.90;;;;;;5072750;28;20048;-72
2023/03/21 02:04:54;;;;;;;15.27;6.45;;;10.70;98.70;;;;;;5072729;28;20024;-72
2023/03/21 02:07:30;;;;;;;16.00;7.18;;;10.80;98.60;;;;;;5072708;28;20551;-72
2023/03/21 02:09:57;;;;;;;12.98;5.97;;;10.80;98.30;;;;;;5072699;28;20104;-72
2023/03/21 02:12:24;;;;;;;11.55;6.43;;;10.80;98.20;;;;;;5072638;28;20026;-72
2023/03/21 02:14:51;;;;;;;16.27;7.25;;;10.80;98.20;;;;;;5072722;28;20044;-72
2023/03/21 02:17:23;;;;;;;11.18;6.22;;;10.80;98.10;;;;;;5071746;28;20055;-72
2023/03/21 02:20:07;;;;;;;21.92;7.00;;;10.80;98.00;;;;;;5071600;28;20021;-72
2023/03/21 02:23:14;;;;;;;13.38;6.60;;;10.80;98.00;;;;;;5072515;28;20104;-72
2023/03/21 02:25:46;;;;;;;14.63;6.70;;;10.80;97.90;;;;;;4995054;28;20027;-72
2023/03/21 02:28:46;;;;;;;12.68;5.57;;;10.80;97.80;;;;;;5062015;28;20045;-72
2023/03/21 02:31:23;;;;;;;14.25;6.43;;;10.80;97.80;;;;;;5075174;28;20032;-71
2023/03/21 02:33:49;;;;;;;19.73;6.63;;;10.90;97.70;;;;;;5076006;28;20059;-72
2023/03/21 02:36:36;;;;;;;14.70;5.97;;;10.90;97.60;;;;;;5075876;28;20040;-72
2023/03/21 02:39:32;;;;;;;12.35;5.97;;;10.90;97.50;;;;;;5074907;28;20028;-72
2023/03/21 02:42:00;;;;;;;13.95;5.63;;;10.90;97.60;;;;;;5076019;28;20040;-72
2023/03/21 02:44:44;;;;;;;14.88;5.55;;;10.90;97.50;;;;;;5075805;28;20035;-71
2023/03/21 02:47:26;;;;;;;13.55;5.88;;;10.80;97.60;;;;;;5075922;28;20021;-72
2023/03/21 02:50:01;;;;;;;13.90;5.50;;;10.80;97.60;;;;;;5075795;28;20025;-72
2023/03/21 02:52:30;;;;;;;11.50;5.70;;;10.80;97.60;;;;;;5074870;28;20039;-72
2023/03/21 02:54:58;;;;;;;10.32;5.22;;;10.80;97.60;;;;;;5074848;28;20017;-71
2023/03/21 02:57:24;;;;;;;13.10;5.57;;;10.70;97.60;;;;;;5075488;28;20046;-72
2023/03/21 02:59:50;;;;;;;11.20;5.50;;;10.80;98.10;;;;;;5074674;28;20029;-72
2023/03/21 03:02:23;;;;;;;13.43;5.53;;;10.80;97.60;;;;;;5075483;28;20017;-72
2023/03/21 03:04:48;;;;;;;14.15;5.63;;;10.80;97.50;;;;;;5075526;28;20031;-72
2023/03/21 03:07:20;;;;;;;18.38;6.05;;;10.80;97.50;;;;;;5075374;28;20037;-72
2023/03/21 03:10:01;;;;;;;12.50;5.80;;;10.80;97.40;;;;;;5075340;28;20059;-72
2023/03/21 03:12:51;;;;;;;11.77;5.72;;;10.80;97.30;;;;;;5075338;28;20059;-72
2023/03/21 03:15:29;;;;;;;15.80;6.10;;;10.80;97.40;;;;;;5074248;28;20029;-72
2023/03/21 03:18:03;;;;;;;11.88;5.32;;;10.80;97.40;;;;;;5075330;28;20052;-71
2023/03/21 03:20:46;;;;;;;14.32;6.50;;;10.80;97.20;;;;;;5075302;28;20021;-72
2023/03/21 03:23:36;;;;;;;12.77;5.50;;;10.80;97.20;;;;;;5075103;28;20021;-72
2023/03/21 03:26:18;;;;;;;13.02;5.90;;;10.70;97.20;;;;;;5074976;28;20096;-72
2023/03/21 03:28:51;;;;;;;9.50;5.10;;;10.80;97.20;;;;;;5074827;28;20043;-72
2023/03/21 03:31:24;;;;;;;13.85;5.38;;;10.80;97.20;;;;;;5074027;28;20290;-72
2023/03/21 03:33:54;;;;;;;12.93;6.18;;;10.70;97.10;;;;;;5074956;28;20032;-72
2023/03/21 03:36:23;;;;;;;13.93;5.72;;;10.70;97.10;;;;;;5073782;28;20029;-72
2023/03/21 03:38:49;;;;;;;13.05;6.20;;;10.70;97.30;;;;;;5074765;28;20026;-72
2023/03/21 03:41:26;;;;;;;14.77;5.90;;;10.70;96.90;;;;;;5073840;28;20029;-72
2023/03/21 03:43:56;;;;;;;13.05;5.93;;;10.70;96.90;;;;;;5074761;28;20044;-71
2023/03/21 03:46:34;;;;;;;17.48;5.93;;;10.70;97.00;;;;;;5074736;28;20029;-71
2023/03/21 03:49:36;;;;;;;11.88;5.88;;;10.70;96.90;;;;;;5074639;28;20056;-72
2023/03/21 03:52:29;;;;;;;11.65;5.32;;;10.80;96.90;;;;;;5060861;28;20035;-72
2023/03/21 03:54:55;;;;;;;11.50;5.57;;;10.70;96.90;;;;;;5073534;28;20025;-72
2023/03/21 03:57:24;;;;;;;13.93;5.63;;;10.70;97.00;;;;;;5074351;28;20047;-72
2023/03/21 03:59:49;;;;;;;14.13;6.22;;;10.70;97.10;;;;;;5073388;28;20025;-71
2023/03/21 04:02:16;;;;;;;18.50;5.35;;;10.60;97.10;;;;;;5073285;28;20036;-72
2023/03/21 04:04:41;;;;;;;9.55;5.80;;;10.60;97.20;;;;;;5056808;28;20048;-71
2023/03/21 04:07:07;;;;;;;12.65;6.10;;;10.60;97.30;;;;;;5073297;28;20033;-71
2023/03/21 04:09:34;;;;;;;14.65;6.45;;;10.60;97.30;;;;;;5074218;28;20029;-72
2023/03/21 04:12:00;;;;;;;12.40;5.72;;;10.60;97.20;;;;;;5074175;28;20025;-72
2023/03/21 04:14:25;;;;;;;12.10;5.75;;;10.60;97.20;;;;;;5074122;28;20520;-72
2023/03/21 04:16:51;;;;;;;13.57;6.28;;;10.60;97.30;;;;;;5073008;28;20037;-72
2023/03/21 04:19:17;;;;;;;14.80;6.47;;;10.50;97.30;;;;;;5074003;28;20029;-72
2023/03/21 04:21:46;;;;;;;12.02;6.10;;;10.60;97.30;;;;;;5073934;28;20057;-71
2023/03/21 04:24:12;;;;;;;11.13;5.38;;;10.50;97.30;;;;;;5073903;28;20032;-72
2023/03/21 04:26:38;;;;;;;12.05;5.85;;;10.50;97.30;;;;;;5073827;28;20028;-71
2023/03/21 04:29:04;;;;;;;12.63;5.90;;;10.50;97.50;;;;;;5073653;28;20079;-71
2023/03/21 04:31:32;;;;;;;15.65;5.85;;;10.50;97.40;;;;;;5073828;28;20084;-71
2023/03/21 04:33:59;;;;;;;13.02;5.95;;;10.50;97.40;;;;;;5072715;28;20494;-71
2023/03/21 04:36:37;;;;;;;11.20;4.85;;;10.60;97.40;;;;;;5073649;28;20075;-71
2023/03/21 04:39:08;;;;;;;11.95;5.75;;;10.50;97.40;;;;;;5073881;28;20025;-71
2023/03/21 04:41:36;;;;;;;15.23;6.03;;;10.50;97.60;;;;;;5073707;28;20032;-71
2023/03/21 04:44:02;;;;;;;11.25;5.22;;;10.50;97.70;;;;;;5072566;28;20420;-71
2023/03/21 04:46:27;;;;;;;13.93;6.07;;;10.50;97.70;;;;;;5073126;28;20036;-71
2023/03/21 04:48:53;;;;;;;13.23;5.45;;;10.40;97.90;;;;;;5072615;28;20033;-72
2023/03/21 04:51:19;;;;;;;11.57;5.63;;;10.40;98.10;;;;;;5073437;28;20029;-71
2023/03/21 04:53:48;;;;;;;11.23;5.18;;;10.40;98.20;;;;;;5073416;28;20025;-71
2023/03/21 04:56:14;;;;;;;13.23;5.30;;;10.50;98.00;;;;;;5073486;28;20036;-72
2023/03/21 04:58:41;;;;;;;13.68;5.72;;;10.40;98.10;;;;;;5073348;28;20043;-71
2023/03/21 05:01:07;;;;;;;14.40;5.95;;;10.50;98.00;;;;;;5073292;28;20032;-71
2023/03/21 05:03:38;;;;;;;11.80;5.28;;;10.50;97.90;;;;;;5072229;28;20025;-72
2023/03/21 05:06:07;;;;;;;11.63;6.10;;;10.50;98.00;;;;;;5072438;28;20024;-71
2023/03/21 05:08:34;;;;;;;14.30;5.47;;;10.50;98.00;;;;;;5072328;28;20025;-72
2023/03/21 05:10:59;;;;;;;13.57;5.70;;;10.50;97.90;;;;;;5072207;28;20025;-72
2023/03/21 05:13:25;;;;;;;15.75;5.88;;;10.60;97.70;;;;;;5072130;28;20033;-71
2023/03/21 05:15:51;;;;;;;11.05;5.28;;;10.50;97.80;;;;;;5073113;28;20041;-71
2023/03/21 05:18:23;;;;;;;13.68;5.70;;;10.50;97.70;;;;;;5073164;28;20055;-71
2023/03/21 05:20:53;;;;;;;13.38;5.75;;;10.50;97.60;;;;;;5072140;28;20021;-72
2023/03/21 05:23:20;;;;;;;12.70;5.18;;;10.50;97.60;;;;;;5073074;28;20025;-72
2023/03/21 05:25:45;;;;;;;13.90;5.85;;;10.50;97.60;;;;;;5073084;28;20031;-72
2023/03/21 05:28:11;;;;;;;12.15;5.35;;;10.50;97.50;;;;;;5072881;28;20057;-72
2023/03/21 05:30:37;;;;;;;16.65;5.88;;;10.50;97.30;;;;;;5073196;28;20037;-72
2023/03/21 05:33:03;;;;;;;11.18;5.53;;;10.50;97.60;;;;;;5055313;28;20049;-71
2023/03/21 05:35:29;;;;;;;13.48;5.63;;;10.40;97.40;;;;;;5072000;28;20033;-72
2023/03/21 05:37:55;;;;;;;12.88;5.93;;;10.40;97.50;;;;;;5072889;28;20053;-71
2023/03/21 05:40:21;;;;;;;13.88;5.30;;;10.50;97.40;;;;;;5072957;28;20017;-71
2023/03/21 05:42:47;;;;;;;14.13;6.00;;;10.50;97.40;;;;;;5072933;28;20473;-71
2023/03/21 05:45:14;;;;;;;11.38;5.13;;;10.50;97.20;;;;;;5072869;28;20060;-71
2023/03/21 05:47:39;;;;;;;17.17;5.35;;;10.50;97.10;;;;;;5072873;28;20041;-72
2023/03/21 05:50:06;;;;;;;8.73;5.13;;;10.50;97.20;;;;;;5071931;28;20029;-72
2023/03/21 05:52:31;;;;;;;14.48;6.35;;;10.50;97.20;;;;;;5072795;28;20405;-72
2023/03/21 05:54:57;;;;;;;13.60;5.97;;;10.60;97.20;;;;;;5072958;28;20188;-71
2023/03/21 05:57:26;;;;;;;11.55;5.32;;;10.50;97.00;;;;;;5072762;28;20021;-71
2023/03/21 05:59:52;;;;;;;11.77;5.07;;;10.50;97.00;;;;;;5074991;28;20500;-71
2023/03/21 06:02:18;;;;;;;13.15;5.80;;;10.50;96.90;;;;;;5076612;28;20029;-71
2023/03/21 06:04:43;;;;;;;10.90;5.20;;;10.50;97.10;;;;;;5076542;28;20036;-72
2023/03/21 06:07:09;;;;;;;20.52;6.03;;;10.50;97.00;;;;;;5076497;28;20025;-71
2023/03/21 06:09:35;;;;;;;13.93;5.15;;;10.60;96.90;;;;;;5076490;28;20076;-72
2023/03/21 06:12:00;;;;;;;14.23;5.53;;;10.50;97.30;;;;;;5076442;28;20033;-71
2023/03/21 06:14:26;;;;;;;12.63;5.57;;;10.60;97.00;;;;;;5076415;28;20025;-71
2023/03/21 06:16:55;;;;;;;13.63;5.63;;;10.50;97.00;;;;;;5076314;28;20025;-71
2023/03/21 06:19:21;;;;;;;10.77;5.32;;;10.60;97.00;;;;;;5075218;28;20045;-71
2023/03/21 06:21:47;;;;;;;12.93;4.82;;;10.60;97.00;;;;;;5076244;28;20029;-71
2023/03/21 06:24:13;;;;;;;15.98;5.45;;;10.60;96.90;;;;;;5075278;28;20386;-71
2023/03/21 06:26:41;;;;;;;10.18;5.18;;;10.60;97.00;;;;;;5076028;28;20104;-71
2023/03/21 06:29:06;;;;;;;10.57;5.85;;;10.60;96.90;;;;;;5074966;28;20104;-71
2023/03/21 06:31:32;;;;;;;12.80;5.55;;;10.60;96.90;;;;;;5075059;28;20033;-71
2023/03/21 06:33:58;;;;;;;10.93;5.22;;;10.60;97.00;;;;;;5076005;28;20037;-71
2023/03/21 06:36:23;;;;;;;14.52;5.70;;;10.60;96.90;;;;;;5075907;28;20051;-71
2023/03/21 06:38:49;;;;;;;12.73;5.10;;;10.60;97.00;;;;;;5075908;28;20025;-71
2023/03/21 06:41:15;;;;;;;11.88;5.50;;;10.50;97.00;;;;;;5075880;28;20017;-71
2023/03/21 06:43:41;;;;;;;14.43;5.22;;;10.60;97.00;;;;;;5058412;28;20036;-72
2023/03/21 06:46:07;;;;;;;13.00;5.45;;;10.60;97.10;;;;;;5075812;28;20028;-71
2023/03/21 06:48:33;;;;;;;11.23;5.93;;;10.60;97.10;;;;;;5058329;28;20029;-71
2023/03/21 06:50:59;;;;;;;12.73;5.60;;;10.60;97.20;;;;;;5074804;28;20040;-71
2023/03/21 06:53:28;;;;;;;11.98;5.65;;;10.60;97.20;;;;;;5075645;28;20028;-71
2023/03/21 06:55:54;;;;;;;12.05;5.63;;;10.70;97.10;;;;;;5075753;28;20028;-71
2023/03/21 06:58:21;;;;;;;12.65;5.07;;;10.70;97.10;;;;;;5075520;28;20057;-71
2023/03/21 07:00:46;;;;;;;14.25;4.85;;;10.70;97.10;;;;;;5075544;28;20024;-71
2023/03/21 07:03:13;;;;;;;11.88;5.20;;;10.70;97.10;;;;;;5075516;28;20026;-71
2023/03/21 07:05:39;;;;;;;12.45;5.20;;;10.80;97.00;;;;;;5075433;28;20029;-71
2023/03/21 07:08:06;;;;;;;14.18;5.90;;;10.70;97.10;;;;;;5074415;28;20016;-71
2023/03/21 07:10:31;;;;;;;10.30;5.03;;;10.80;97.00;;;;;;5075015;28;20025;-71
2023/03/21 07:13:00;;;;;;;15.27;4.93;;;10.80;97.00;;;;;;5075288;28;20037;-70
2023/03/21 07:15:25;;;;;;;14.05;4.93;;;10.80;96.80;;;;;;5074344;28;20033;-70
2023/03/21 07:17:51;;;;;;;12.77;5.10;;;10.80;97.10;;;;;;5074215;28;20051;-71
2023/03/21 07:20:18;;;;;;;10.00;4.20;;;10.90;97.00;;;;;;5074146;28;20056;-71
2023/03/21 07:22:44;;;;;;;9.30;4.18;;;10.80;96.90;;;;;;5075140;28;20036;-71
2023/03/21 07:25:10;;;;;;;10.80;4.88;;;10.80;97.40;;;;;;5075040;28;20021;-71
2023/03/21 07:27:37;;;;;;;12.90;4.68;;;10.80;97.30;;;;;;5074883;28;20064;-71
2023/03/21 07:30:04;;;;;;;9.65;3.95;;;10.80;97.40;;;;;;5074807;28;20053;-71
2023/03/21 07:32:33;;;;;;;9.43;4.00;;;10.80;97.30;;;;;;5075027;28;20021;-71
2023/03/21 07:34:59;;;;;;;11.95;4.63;;;10.80;97.50;;;;;;5074852;28;20082;-71
2023/03/21 07:37:25;;;;;;;8.30;4.13;;;10.80;97.80;;;;;;5074641;28;20033;-71
2023/03/21 07:39:51;;;;;;;12.85;5.07;;;10.80;97.90;;;;;;5074775;28;20103;-72
2023/03/21 07:42:17;;;;;;;7.82;4.03;;;10.80;98.10;;;;;;5073858;28;20151;-71
2023/03/21 07:44:43;;;;;;;9.52;4.05;;;10.80;98.20;;;;;;5074656;28;20084;-71
2023/03/21 07:47:09;;;;;;;9.10;4.57;;;10.80;98.20;;;;;;5073479;28;20029;-71
2023/03/21 07:49:35;;;;;;;10.60;4.15;;;10.80;98.40;;;;;;5074569;28;20040;-71
2023/03/21 07:52:01;;;;;;;12.48;4.75;;;10.80;98.50;;;;;;5074524;28;20025;-72
2023/03/21 07:54:27;;;;;;;9.88;4.68;;;10.80;98.40;;;;;;5073485;28;20059;-71
2023/03/21 07:56:54;;;;;;;9.02;4.18;;;10.80;98.60;;;;;;5074330;28;20016;-71
2023/03/21 07:59:20;;;;;;;12.98;4.72;;;10.90;98.70;;;;;;5073483;28;20021;-71
2023/03/21 08:01:45;;;;;;;8.52;4.63;;;10.90;98.70;;;;;;5074306;28;20043;-71
2023/03/21 08:04:11;;;;;;;11.07;4.68;;;10.80;98.60;;;;;;5074295;28;20089;-71
2023/03/21 08:06:36;;;;;;;11.32;5.00;;;10.80;99.00;;;;;;5074204;28;20033;-71
2023/03/21 08:09:02;;;;;;;11.40;4.72;;;10.80;99.20;;;;;;5074219;28;20033;-71
2023/03/21 08:11:31;;;;;;;9.05;4.35;;;10.80;99.50;;;;;;5074129;28;20029;-71
2023/03/21 08:13:58;;;;;;;8.40;4.43;;;10.80;99.30;;;;;;5074083;28;20033;-71
2023/03/21 08:16:24;;;;;;;9.68;4.63;;;10.80;99.60;;;;;;5074026;28;20052;-71
2023/03/21 08:18:49;;;;;;;17.55;5.43;;;10.80;99.60;;;;;;5074036;28;20021;-71
2023/03/21 08:21:15;;;;;;;12.02;4.70;;;10.80;99.70;;;;;;5073526;28;20033;-71
2023/03/21 08:23:41;;;;;;;9.68;4.47;;;10.80;99.60;;;;;;5072714;28;20034;-71
2023/03/21 08:26:08;;;;;;;11.88;4.63;;;10.90;99.70;;;;;;5073948;28;20025;-71
2023/03/21 08:28:35;;;;;;;11.35;4.53;;;10.90;99.50;;;;;;5073811;28;20106;-70
2023/03/21 08:31:10;;;;;;;10.60;4.63;;;10.90;99.70;;;;;;5072811;28;20029;-71
2023/03/21 08:33:36;;;;;;;12.68;5.00;;;10.90;99.70;;;;;;5074010;28;20017;-70
2023/03/21 08:36:03;;;;;;;8.32;4.60;;;10.90;99.80;;;;;;5073719;28;20500;-70
2023/03/21 08:38:30;;;;;;;9.88;5.00;;;10.90;99.50;;;;;;5073550;28;20025;-70
2023/03/21 08:40:56;;;;;;;10.82;5.05;;;10.90;99.80;;;;;;5073768;28;20015;-70
2023/03/21 08:43:22;;;;;;;13.10;5.43;;;10.90;99.90;;;;;;5073571;28;20029;-71
2023/03/21 08:45:48;;;;;;;10.55;4.85;;;11.00;99.90;;;;;;5073591;28;20029;-71
2023/03/21 08:48:14;;;;;;;17.42;6.45;;;11.00;99.80;;;;;;5073581;28;20031;-71
2023/03/21 08:50:39;;;;;;;10.88;5.47;;;11.00;99.90;;;;;;5072542;28;20482;-71
2023/03/21 08:53:05;;;;;;;10.18;4.72;;;11.00;99.90;;;;;;5073470;28;20040;-71
2023/03/21 08:55:32;;;;;;;12.15;4.80;;;11.00;99.70;;;;;;5073380;28;20093;-71
2023/03/21 08:57:58;;;;;;;12.88;5.40;;;11.10;99.60;;;;;;5073328;28;20025;-71
2023/03/21 09:00:24;;;;;;;11.27;5.07;;;11.20;99.40;;;;;;5072368;28;20025;-71
2023/03/21 09:02:51;;;;;;;11.38;5.47;;;11.20;99.60;;;;;;5073332;28;20040;-71
2023/03/21 09:05:17;;;;;;;11.02;4.93;;;11.20;99.40;;;;;;5073279;28;20091;-71
2023/03/21 09:07:44;;;;;;;11.55;5.70;;;11.20;99.30;;;;;;5073250;28;20028;-70
2023/03/21 09:10:16;;;;;;;10.63;5.03;;;11.20;99.50;;;;;;5072217;28;20017;-71
2023/03/21 09:12:42;;;;;;;11.77;5.15;;;11.20;99.70;;;;;;5073216;28;20025;-70
2023/03/21 09:15:09;;;;;;;11.32;4.88;;;11.20;99.90;;;;;;5073164;28;20112;-71
2023/03/21 09:17:35;;;;;;;12.48;4.97;;;11.20;99.90;;;;;;5072127;28;20033;-70
2023/03/21 09:20:09;;;;;;;9.13;5.32;;;11.20;99.90;;;;;;5072195;28;20045;-71
2023/03/21 09:22:35;;;;;;;11.45;4.40;;;11.20;99.90;;;;;;5072079;28;20028;-71
2023/03/21 09:25:01;;;;;;;13.80;4.85;;;11.20;99.50;;;;;;5073112;28;20021;-71
2023/03/21 09:27:27;;;;;;;10.88;5.10;;;11.20;99.40;;;;;;5073017;28;20032;-71
2023/03/21 09:29:53;;;;;;;15.75;5.47;;;11.20;99.60;;;;;;5071833;28;20481;-70
2023/03/21 09:32:19;;;;;;;11.07;5.30;;;11.30;99.80;;;;;;5073123;28;20033;-71
2023/03/21 09:34:44;;;;;;;8.43;4.57;;;11.30;99.40;;;;;;5076955;28;20028;-71
2023/03/21 09:37:12;;;;;;;10.85;4.60;;;11.30;99.50;;;;;;5077065;28;20036;-71
2023/03/21 09:39:41;;;;;;;10.75;4.88;;;11.30;99.20;;;;;;5077106;28;20047;-70
2023/03/21 09:42:36;;;;;;;14.02;5.43;;;11.30;99.50;;;;;;5077058;28;20048;-71
2023/03/21 09:45:06;;;;;;;16.13;5.50;;;11.40;99.70;;;;;;5077155;28;20047;-71
2023/03/21 09:47:44;;;;;;;11.85;5.57;;;11.40;99.60;;;;;;5076869;28;20025;-71
2023/03/21 09:50:18;;;;;;;10.68;5.22;;;11.40;99.80;;;;;;5076937;28;20017;-71
2023/03/21 09:52:57;;;;;;;13.15;5.85;;;11.40;99.90;;;;;;5077005;28;20025;-71
2023/03/21 09:55:29;;;;;;;16.83;5.82;;;11.50;99.90;;;;;;5075881;28;20025;-71
2023/03/21 09:58:14;;;;;;;15.93;7.03;;;11.50;99.90;;;;;;5076747;28;20039;-71
2023/03/21 10:00:44;;;;;;;13.80;6.88;;;11.60;99.80;;;;;;5075747;28;20063;-71
2023/03/21 10:03:25;;;;;;;11.20;5.85;;;11.60;99.70;;;;;;5076539;28;20018;-71
2023/03/21 10:05:59;;;;;;;12.27;6.05;;;11.60;99.10;;;;;;5076658;28;20033;-71
2023/03/21 10:08:30;;;;;;;12.40;5.03;;;11.60;99.10;;;;;;5075585;28;20025;-71
2023/03/21 10:11:02;;;;;;;11.57;5.93;;;11.60;99.00;;;;;;5076714;28;20052;-71
2023/03/21 10:13:51;;;;;;;12.23;5.70;;;11.60;98.60;;;;;;5076508;28;20025;-71
2023/03/21 10:16:31;;;;;;;15.07;5.80;;;11.60;98.80;;;;;;5076413;28;20102;-71
2023/03/21 10:19:01;;;;;;;9.00;4.75;;;11.60;99.30;;;;;;5076429;28;20028;-71
2023/03/21 10:21:28;;;;;;;12.98;4.75;;;11.60;98.90;;;;;;5075444;28;20029;-72
2023/03/21 10:23:56;;;;;;;11.52;4.78;;;11.70;99.00;;;;;;5076265;28;20025;-71
2023/03/21 10:26:26;;;;;;;13.00;4.90;;;11.80;98.20;;;;;;5075893;28;20036;-71
2023/03/21 10:28:54;;;;;;;9.35;4.60;;;11.80;98.20;;;;;;5076037;28;20049;-71
2023/03/21 10:31:27;;;;;;;9.82;4.53;;;11.90;98.10;;;;;;5076093;28;20017;-71
2023/03/21 10:33:56;;;;;;;11.38;4.60;;;11.90;97.60;;;;;;5076119;28;20013;-71
2023/03/21 10:36:29;;;;;;;15.02;4.78;;;11.90;97.50;;;;;;5075961;28;20104;-71
2023/03/21 10:39:05;;;;;;;10.73;4.57;;;11.90;97.50;;;;;;5074982;28;20092;-71
2023/03/21 10:41:32;;;;;;;9.18;4.25;;;11.90;97.10;;;;;;5076168;28;20036;-71
2023/03/21 10:44:15;;;;;;;11.07;4.63;;;11.90;97.00;;;;;;5075908;28;20074;-70
2023/03/21 10:46:56;;;;;;;10.52;4.47;;;11.90;96.80;;;;;;5072063;28;20037;-70
2023/03/21 10:49:22;;;;;;;7.72;3.95;;;11.90;97.00;;;;;;5075946;28;20017;-71
2023/03/21 10:51:54;;;;;;;10.77;4.82;;;11.90;96.90;;;;;;5075748;28;20029;-71
2023/03/21 10:54:24;;;;;;;10.10;4.97;;;11.90;97.20;;;;;;5075689;28;20021;-71
2023/03/21 10:56:56;;;;;;;11.98;5.03;;;12.00;97.20;;;;;;5074602;28;20021;-71
2023/03/21 10:59:25;;;;;;;10.85;4.65;;;12.10;97.10;;;;;;5074603;28;20493;-70
2023/03/21 11:01:54;;;;;;;7.10;4.65;;;12.10;96.90;;;;;;5075560;28;20044;-71
2023/03/21 11:04:25;;;;;;;10.30;4.93;;;12.10;96.80;;;;;;5075544;28;20036;-71
2023/03/21 11:07:00;;;;;;;8.48;4.25;;;12.10;96.90;;;;;;5075495;28;20032;-72
2023/03/21 11:09:46;;;;;;;9.45;4.45;;;12.10;96.80;;;;;;5075476;28;20021;-71
2023/03/21 11:12:17;;;;;;;12.13;5.25;;;12.10;97.20;;;;;;5075408;28;20044;-70
2023/03/21 11:14:47;;;;;;;8.70;4.47;;;12.10;96.60;;;;;;5075366;28;20041;-71
2023/03/21 11:17:15;;;;;;;9.18;4.70;;;12.10;97.00;;;;;;5074136;28;20081;-71
2023/03/21 11:19:47;;;;;;;9.45;3.28;;;12.20;96.80;;;;;;5075190;28;20032;-72
2023/03/21 11:22:13;;;;;;;9.10;4.03;;;12.30;96.40;;;;;;5075226;28;20021;-71
2023/03/21 11:24:48;;;;;;;6.75;3.03;;;12.20;96.00;;;;;;5075122;28;20033;-71
2023/03/21 11:27:14;;;;;;;11.05;4.45;;;12.20;95.80;;;;;;5074212;28;20036;-71
2023/03/21 11:29:50;;;;;;;5.25;2.92;;;12.20;96.10;;;;;;5073751;28;20049;-71
2023/03/21 11:32:34;;;;;;;10.15;4.75;;;12.30;95.70;;;;;;5075038;28;20013;-71
2023/03/21 11:35:15;;;;;;;8.50;3.88;;;12.30;95.90;;;;;;5075081;28;20092;-71
2023/03/21 11:37:49;;;;;;;8.32;4.55;;;12.30;95.70;;;;;;5074828;28;20025;-71
2023/03/21 11:40:18;;;;;;;7.05;3.95;;;12.30;95.40;;;;;;5074892;28;20018;-71
2023/03/21 11:42:48;;;;;;;9.00;5.03;;;12.30;95.20;;;;;;5074762;28;20017;-72
2023/03/21 11:45:19;;;;;;;6.82;3.35;;;12.50;95.00;;;;;;5074861;28;20021;-71
2023/03/21 11:47:46;;;;;;;8.88;4.00;;;12.40;94.40;;;;;;5074858;28;20025;-71
2023/03/21 11:50:16;;;;;;;8.90;4.70;;;12.40;94.40;;;;;;5074598;28;20036;-71
2023/03/21 11:53:12;;;;;;;10.30;3.53;;;12.50;94.90;;;;;;5074539;28;20055;-72
2023/03/21 11:55:50;;;;;;;10.02;4.78;;;12.50;94.70;;;;;;5074623;28;20060;-71
2023/03/21 11:58:38;;;;;;;8.85;4.03;;;12.50;94.90;;;;;;5073867;28;20092;-71
2023/03/21 12:01:11;;;;;;;9.15;4.72;;;12.60;94.40;;;;;;5073420;28;20085;-71
2023/03/21 12:03:43;;;;;;;8.57;4.10;;;12.60;93.90;;;;;;5073390;28;20024;-72
2023/03/21 12:06:36;;;;;;;9.23;4.22;;;12.60;93.90;;;;;;5074441;28;20132;-71
2023/03/21 12:09:02;;;;;;;10.05;4.50;;;12.70;94.20;;;;;;5064474;28;20028;-71
2023/03/21 12:11:51;;;;;;;6.40;3.75;;;12.80;94.00;;;;;;5074185;28;20033;-71
2023/03/21 12:14:45;;;;;;;6.50;3.53;;;12.80;93.40;;;;;;5073237;28;20025;-71
2023/03/21 12:17:34;;;;;;;6.43;3.85;;;12.70;93.40;;;;;;5063231;28;20041;-71
2023/03/21 12:20:09;;;;;;;10.07;4.93;;;12.80;93.60;;;;;;5074055;28;20029;-72
2023/03/21 12:22:34;;;;;;;9.85;4.65;;;12.90;93.40;;;;;;5073111;28;20035;-71
2023/03/21 12:25:11;;;;;;;12.18;4.65;;;12.90;92.90;;;;;;5073952;28;20025;-72
2023/03/21 12:27:52;;;;;;;7.95;3.80;;;12.90;93.20;;;;;;5074020;28;20085;-71
2023/03/21 12:30:31;;;;;;;6.97;3.63;;;13.00;92.40;;;;;;5073866;28;20051;-71
2023/03/21 12:33:20;;;;;;;9.07;3.38;;;13.10;92.30;;;;;;5073869;28;20032;-71
2023/03/21 12:36:04;;;;;;;6.45;3.35;;;13.20;91.70;;;;;;5055543;28;20049;-71
2023/03/21 12:38:39;;;;;;;8.18;2.85;;;13.20;91.20;;;;;;5072518;28;20115;-71
2023/03/21 12:41:14;;;;;;;7.90;3.28;;;13.20;90.40;;;;;;5073735;28;20041;-71
2023/03/21 12:43:58;;;;;;;9.07;3.50;;;13.30;90.90;;;;;;5073706;28;20021;-71
2023/03/21 12:46:46;;;;;;;8.52;3.40;;;13.40;90.30;;;;;;5072692;28;20021;-72
2023/03/21 12:49:23;;;;;;;7.13;2.90;;;13.40;90.80;;;;;;5073590;28;20017;-71
2023/03/21 12:51:56;;;;;;;7.82;3.63;;;13.40;90.10;;;;;;5072576;28;20028;-72
2023/03/21 12:54:35;;;;;;;7.43;3.33;;;13.50;91.40;;;;;;5072490;28;20021;-71